Time;durP1;ratioP1;P1;durP2;ratioP2;P2;SDS_P1;SDS_P2;PMS_P1;PMS_P2;Temp;Humidity;BMP_temperature;BMP_pressure;BME280_temperature;BME280_humidity;BME280_pressure;Samples;Min_cycle;Max_cycle;Signal;HPM_P1;HPM_P2
2021/06/01 00:00:48;;;;;;;3.87;1.60;;;;;;;12.72;100.00;98898.38;1681853;85;21535;-73
2021/06/01 00:03:18;;;;;;;3.10;1.30;;;;;;;12.69;100.00;98895.33;1668099;85;20936;-73
2021/06/01 00:05:49;;;;;;;1.22;1.12;;;;;;;12.70;100.00;98908.11;1686775;84;21495;-73
2021/06/01 00:08:24;;;;;;;5.63;1.47;;;;;;;12.65;100.00;98896.73;1697718;84;21017;-75
2021/06/01 00:10:55;;;;;;;2.90;1.05;;;;;;;12.60;100.00;98900.80;1694962;84;21337;-75
2021/06/01 00:13:24;;;;;;;2.37;1.55;;;;;;;12.57;100.00;98900.85;1692723;84;21006;-75
2021/06/01 00:15:57;;;;;;;3.35;1.45;;;;;;;12.55;100.00;98899.56;1694116;84;21034;-75
2021/06/01 00:18:26;;;;;;;2.72;1.22;;;;;;;12.55;100.00;98899.56;1697777;83;21505;-74
2021/06/01 00:20:59;;;;;;;4.08;1.50;;;;;;;12.57;100.00;98905.70;1681984;85;20948;-74
2021/06/01 00:23:30;;;;;;;1.90;1.37;;;;;;;12.54;100.00;98898.27;1654768;86;21533;-74
2021/06/01 00:26:11;;;;;;;3.35;1.20;;;;;;;12.51;100.00;98896.99;1648293;85;21048;-73
2021/06/01 00:28:40;;;;;;;3.42;1.72;;;;;;;12.47;100.00;98904.11;1652762;85;21032;-74
2021/06/01 00:31:09;;;;;;;3.50;1.15;;;;;;;12.45;100.00;98900.62;1653349;85;21118;-73
2021/06/01 00:33:45;;;;;;;2.83;1.27;;;;;;;12.44;100.00;98899.33;1633023;85;21628;-74
2021/06/01 00:36:15;;;;;;;3.20;1.30;;;;;;;12.42;100.00;98899.36;1653375;87;21069;-74
2021/06/01 00:38:45;;;;;;;2.08;1.40;;;;;;;12.43;100.00;98904.20;1623850;87;21519;-73
2021/06/01 00:41:33;;;;;;;1.77;1.20;;;;;;;12.42;100.00;98905.09;1652893;86;21414;-73
2021/06/01 00:43:48;;;;;;;;;;;;;;;12.40;100.00;98905.13;1623791;87;20910;-73
2021/06/01 00:46:18;;;;;;;2.95;1.05;;;;;;;12.39;100.00;98906.02;1654924;86;20173;-72
2021/06/01 00:48:49;;;;;;;2.10;1.47;;;;;;;12.37;100.00;98905.17;1689829;84;21440;-72
2021/06/01 00:51:19;;;;;;;3.50;1.25;;;;;;;12.33;100.00;98903.94;1648872;87;20913;-73
2021/06/01 00:53:49;;;;;;;2.27;1.30;;;;;;;12.30;100.00;98902.22;1664394;85;20995;-73
2021/06/01 00:56:19;;;;;;;2.50;1.47;;;;;;;12.28;100.00;98897.36;1676491;85;20976;-72
2021/06/01 00:58:52;;;;;;;2.20;1.05;;;;;;;12.27;100.00;98896.94;1679214;85;20932;-72
2021/06/01 01:01:22;;;;;;;3.35;1.65;;;;;;;12.26;100.00;98889.45;1679048;85;21434;-74
2021/06/01 01:03:54;;;;;;;1.67;1.37;;;;;;;12.25;100.00;98894.33;1676439;85;21581;-75
2021/06/01 01:06:42;;;;;;;2.95;1.20;;;;;;;12.24;100.00;98892.58;1679139;85;20957;-74
2021/06/01 01:09:14;;;;;;;2.75;1.17;;;;;;;12.24;100.00;98895.22;1678153;85;21464;-74
2021/06/01 01:12:14;;;;;;;3.80;1.20;;;;;;;12.22;100.00;98886.89;1651596;87;21156;-74
2021/06/01 01:14:45;;;;;;;2.92;1.15;;;;;;;12.22;100.00;98892.18;1681605;85;21246;-74
2021/06/01 01:17:19;;;;;;;4.17;1.20;;;;;;;12.19;100.00;98896.20;1683354;85;21098;-72
2021/06/01 01:20:27;;;;;;;1.95;1.30;;;;;;;12.17;100.00;98892.70;1680580;85;20976;-72
2021/06/01 01:23:00;;;;;;;2.42;1.37;;;;;;;12.12;100.00;98888.82;1649444;85;20972;-72
2021/06/01 01:25:51;;;;;;;4.08;1.30;;;;;;;12.08;100.00;98885.80;1677898;84;21016;-72
2021/06/01 01:29:17;;;;;;;3.77;1.42;;;;;;;12.06;100.00;98891.56;1677682;85;21004;-72
2021/06/01 01:31:58;;;;;;;2.98;1.27;;;;;;;12.04;100.00;98887.20;1667530;85;21688;-72
2021/06/01 01:34:28;;;;;;;2.50;1.35;;;;;;;12.00;100.00;98886.38;1651925;87;20967;-74
2021/06/01 01:36:58;;;;;;;2.30;1.70;;;;;;;11.97;100.00;98882.46;1650156;85;21500;-69
2021/06/01 01:39:27;;;;;;;3.58;1.30;;;;;;;11.95;100.00;98879.84;1646510;87;21084;-68
2021/06/01 01:41:56;;;;;;;2.90;1.22;;;;;;;11.92;100.00;98882.53;1677871;85;21316;-70
2021/06/01 01:44:31;;;;;;;;;;;;;;;11.89;100.00;98878.63;1651421;86;21019;-70
2021/06/01 01:48:58;;;;;;;2.95;1.50;;;;;;;11.87;100.00;98889.66;1633879;87;20575;-69
2021/06/01 01:49:36;;;;;;;8.40;1.60;;;;;;;11.83;100.00;98893.25;1662829;85;21502;-69
2021/06/01 01:52:10;;;;;;;3.17;1.37;;;;;;;11.82;100.00;98894.56;1688689;84;21639;-68
2021/06/01 01:54:39;;;;;;;2.42;1.05;;;;;;;11.81;100.00;98899.42;1689949;84;21092;-69
2021/06/01 01:57:10;;;;;;;2.85;1.10;;;;;;;11.79;100.00;98900.77;1687730;85;20955;-69
2021/06/01 01:59:43;;;;;;;1.75;1.10;;;;;;;11.78;100.00;98902.98;1689906;85;20923;-69
2021/06/01 02:02:16;;;;;;;3.10;1.17;;;;;;;11.76;100.00;98897.27;1653573;85;21577;-69
2021/06/01 02:04:44;;;;;;;2.47;1.10;;;;;;;11.74;100.00;98894.65;1656316;85;21498;-68
2021/06/01 02:07:13;;;;;;;2.35;1.20;;;;;;;11.71;100.00;98895.14;1677895;85;21091;-69
2021/06/01 02:09:42;;;;;;;4.55;1.47;;;;;;;11.71;100.00;98896.02;1649157;86;21458;-69
2021/06/01 02:12:11;;;;;;;1.77;1.07;;;;;;;11.71;100.00;98896.02;1649169;86;21462;-68
2021/06/01 02:14:39;;;;;;;2.37;1.30;;;;;;;11.67;100.00;98896.50;1649177;86;20948;-69
2021/06/01 02:17:09;;;;;;;2.65;1.30;;;;;;;11.62;100.00;98892.19;1647793;86;21462;-68
2021/06/01 02:19:38;;;;;;;3.45;1.45;;;;;;;11.58;100.00;98894.00;1630802;86;21790;-67
2021/06/01 02:25:01;;;;;;;2.33;1.25;;;;;;;11.54;100.00;98893.62;1651929;86;21514;-68
2021/06/01 02:27:57;;;;;;;3.47;1.45;;;;;;;11.54;100.00;98888.33;1627372;87;20974;-69
2021/06/01 02:30:45;;;;;;;3.10;1.45;;;;;;;11.54;100.00;98896.70;1651274;86;20935;-64
2021/06/01 02:33:27;;;;;;;4.22;1.30;;;;;;;11.51;100.00;98896.75;1663562;84;21538;-67
2021/06/01 02:36:00;;;;;;;1.87;1.37;;;;;;;11.49;100.00;98898.54;1653131;86;21495;-66
2021/06/01 02:38:37;;;;;;;3.77;1.20;;;;;;;11.48;100.00;98898.98;1649324;87;21529;-68
2021/06/01 02:41:05;;;;;;;3.15;1.30;;;;;;;11.48;100.00;98898.11;1630491;86;21637;-69
2021/06/01 02:43:35;;;;;;;1.77;1.30;;;;;;;11.46;100.00;98898.13;1652169;86;21438;-66
2021/06/01 02:46:07;;;;;;;4.45;2.02;;;;;;;11.43;100.00;98898.17;1644433;86;21059;-66
2021/06/01 02:48:32;;;;;;;3.22;1.20;;;;;;;11.41;100.00;98897.33;1640785;86;20988;-67
2021/06/01 02:51:14;;;;;;;3.50;1.32;;;;;;;11.42;100.00;98897.75;1626234;86;20946;-67
2021/06/01 02:53:33;;;;;;;3.20;1.10;;;;;;;11.43;100.00;98896.86;1655025;85;20936;-66
2021/06/01 02:56:08;;;;;;;3.55;1.42;;;;;;;11.44;100.00;98899.05;1603799;88;20938;-66
2021/06/01 02:58:41;;;;;;;1.72;1.10;;;;;;;11.42;100.00;98898.20;1625639;86;21421;-65
2021/06/01 03:01:30;;;;;;;;;;;;;;;11.42;100.00;98899.52;1645430;85;21082;-66
2021/06/01 03:03:58;;;;;;;3.40;1.47;;;;;;;11.42;100.00;98895.56;1671922;84;20595;-66
2021/06/01 03:06:28;;;;;;;3.30;1.45;;;;;;;11.44;100.00;98902.56;1679405;85;21011;-66
2021/06/01 03:08:58;;;;;;;3.92;1.30;;;;;;;11.43;100.00;98898.63;1681076;84;20991;-65
2021/06/01 03:11:37;;;;;;;2.22;1.30;;;;;;;11.46;100.00;98895.94;1674433;85;21546;-68
2021/06/01 03:14:02;;;;;;;2.98;1.30;;;;;;;11.49;100.00;98899.86;1665995;85;21410;-65
2021/06/01 03:16:36;;;;;;;1.90;1.30;;;;;;;11.51;100.00;98898.95;1651313;86;21491;-66
2021/06/01 03:19:04;;;;;;;1.52;1.30;;;;;;;11.52;100.00;98892.77;1679464;85;21510;-67
2021/06/01 03:21:34;;;;;;;5.37;1.20;;;;;;;11.52;100.00;98894.09;1681506;85;21324;-66
2021/06/01 03:24:04;;;;;;;2.27;1.22;;;;;;;11.52;100.00;98893.21;1655550;86;21490;-67
2021/06/01 03:26:33;;;;;;;4.00;1.20;;;;;;;11.49;100.00;98891.48;1645399;86;21449;-69
2021/06/01 03:29:01;;;;;;;1.42;1.10;;;;;;;11.46;100.00;98894.62;1649296;86;21564;-69
2021/06/01 03:31:31;;;;;;;4.55;1.05;;;;;;;11.46;100.00;98896.81;1635728;86;21651;-68
2021/06/01 03:33:59;;;;;;;3.00;1.55;;;;;;;11.46;100.00;98897.27;1636506;86;21054;-69
2021/06/01 03:36:28;;;;;;;3.10;1.30;;;;;;;11.46;100.00;98897.27;1637881;86;21064;-72
2021/06/01 03:38:56;;;;;;;2.40;1.10;;;;;;;11.48;100.00;98893.70;1678276;84;21083;-68
2021/06/01 03:41:25;;;;;;;5.17;1.40;;;;;;;11.53;100.00;98893.19;1678257;84;21046;-68
2021/06/01 03:43:53;;;;;;;2.22;1.40;;;;;;;11.60;100.00;98896.62;1656010;85;20964;-67
2021/06/01 03:46:20;;;;;;;1.52;1.40;;;;;;;11.70;100.00;98901.32;1659760;85;20977;-68
2021/06/01 03:48:50;;;;;;;4.15;1.32;;;;;;;11.75;100.00;98893.75;1655122;86;21434;-69
2021/06/01 03:51:18;;;;;;;2.55;1.67;;;;;;;11.79;100.00;98898.13;1653943;85;21020;-69
2021/06/01 03:53:47;;;;;;;1.87;1.27;;;;;;;11.85;100.00;98895.87;1654948;86;20979;-69
2021/06/01 03:56:15;;;;;;;2.25;1.30;;;;;;;11.91;100.00;98887.84;1655034;86;21599;-69
2021/06/01 03:58:44;;;;;;;2.35;1.20;;;;;;;11.99;100.00;98893.88;1653981;86;21537;-68
2021/06/01 04:01:11;;;;;;;2.52;1.40;;;;;;;12.06;100.00;98888.92;1630379;86;21061;-69
2021/06/01 04:03:41;;;;;;;8.53;1.87;;;;;;;12.09;100.00;98886.23;1654951;86;21546;-69
2021/06/01 04:06:11;;;;;;;4.17;1.52;;;;;;;12.13;100.00;98887.05;1654027;86;21751;-67
2021/06/01 04:08:40;;;;;;;3.40;1.47;;;;;;;12.16;100.00;98885.67;1655419;86;21470;-70
2021/06/01 04:11:08;;;;;;;2.20;1.50;;;;;;;12.18;100.00;98884.75;1655685;86;21427;-69
2021/06/01 04:13:37;;;;;;;5.50;2.08;;;;;;;12.23;100.00;98879.38;1654714;86;21172;-69
2021/06/01 04:16:05;;;;;;;4.78;1.95;;;;;;;12.29;100.00;98877.50;1655655;86;20989;-69
2021/06/01 04:18:33;;;;;;;6.75;1.75;;;;;;;12.38;100.00;98871.21;1655653;86;21553;-68
2021/06/01 04:21:02;;;;;;;4.47;1.60;;;;;;;12.45;100.00;98866.69;1654569;85;21123;-69
2021/06/01 04:23:30;;;;;;;3.30;1.40;;;;;;;12.50;100.00;98869.66;1655723;86;20992;-69
2021/06/01 04:25:58;;;;;;;1.40;1.20;;;;;;;12.55;100.00;98869.12;1655698;85;21114;-69
2021/06/01 04:28:25;;;;;;;3.33;1.27;;;;;;;12.59;100.00;98872.59;1654603;86;21459;-67
2021/06/01 04:30:53;;;;;;;3.12;1.22;;;;;;;12.64;100.00;98868.53;1655598;86;20940;-68
2021/06/01 04:33:21;;;;;;;1.80;1.17;;;;;;;12.71;100.00;98872.81;1655617;86;21011;-68
2021/06/01 04:35:49;;;;;;;8.40;1.62;;;;;;;12.75;100.00;98855.52;1654707;85;20928;-69
2021/06/01 04:38:17;;;;;;;5.37;1.62;;;;;;;12.80;100.00;98860.75;1655620;86;21132;-68
2021/06/01 04:40:45;;;;;;;3.83;1.35;;;;;;;12.82;100.00;98862.47;1655591;86;21409;-68
2021/06/01 04:43:13;;;;;;;2.60;1.47;;;;;;;12.79;100.00;98855.91;1654678;86;20925;-70
2021/06/01 04:45:41;;;;;;;4.22;1.27;;;;;;;12.77;100.00;98859.45;1655674;86;20959;-69
2021/06/01 04:48:12;;;;;;;2.58;1.40;;;;;;;12.79;100.00;98859.88;1655752;86;20963;-69
2021/06/01 04:50:39;;;;;;;6.87;1.35;;;;;;;12.81;100.00;98871.77;1654706;86;21374;-69
2021/06/01 04:53:07;;;;;;;1.92;1.10;;;;;;;12.85;100.00;98873.45;1655541;86;21031;-69
2021/06/01 04:55:35;;;;;;;1.37;1.27;;;;;;;12.86;100.00;98873.41;1655646;86;20983;-69
2021/06/01 04:58:03;;;;;;;1.47;1.07;;;;;;;12.88;100.00;98869.41;1654655;86;21614;-68
2021/06/01 05:00:30;;;;;;;3.08;1.30;;;;;;;12.87;100.00;98868.99;1655668;86;20916;-68
2021/06/01 05:02:58;;;;;;;3.62;1.20;;;;;;;12.86;100.00;98877.84;1655597;86;21069;-68
2021/06/01 05:05:26;;;;;;;2.85;1.20;;;;;;;12.85;100.00;98880.94;1654614;86;20981;-68
2021/06/01 05:07:54;;;;;;;3.85;1.12;;;;;;;12.90;100.00;98890.11;1655595;86;20901;-69
2021/06/01 05:10:22;;;;;;;2.08;1.35;;;;;;;12.89;100.00;98881.75;1655610;85;21395;-69
2021/06/01 05:12:50;;;;;;;2.65;1.22;;;;;;;12.88;100.00;98880.00;1654700;86;20896;-69
2021/06/01 05:15:18;;;;;;;2.98;1.45;;;;;;;12.90;100.00;98888.78;1655638;86;21131;-69
2021/06/01 05:17:48;;;;;;;6.50;1.50;;;;;;;12.98;100.00;98884.66;1655567;86;20944;-69
2021/06/01 05:20:16;;;;;;;1.20;1.10;;;;;;;13.05;100.00;98891.13;1654617;86;21399;-69
2021/06/01 05:22:44;;;;;;;2.08;1.22;;;;;;;13.13;100.00;98890.97;1655641;86;20993;-68
2021/06/01 05:25:12;;;;;;;2.45;1.55;;;;;;;13.19;100.00;98882.92;1655646;85;20912;-68
2021/06/01 05:27:40;;;;;;;2.08;1.35;;;;;;;13.19;100.00;98885.58;1654633;85;21525;-69
2021/06/01 05:30:09;;;;;;;4.85;1.40;;;;;;;13.18;100.00;98890.45;1655530;86;21091;-69
2021/06/01 05:35:26;;;;;;;1.47;1.27;;;;;;;13.14;100.00;98895.36;1654642;86;21139;-68
2021/06/01 05:37:52;;;;;;;;;;;;;;;13.06;100.00;98882.28;1657955;86;20941;-68
2021/06/01 05:40:20;;;;;;;4.25;1.50;;;;;;;12.95;100.00;98895.31;1654666;85;21775;-68
2021/06/01 05:42:48;;;;;;;2.75;1.42;;;;;;;12.82;100.00;98882.32;1655512;86;21508;-68
2021/06/01 05:45:16;;;;;;;2.52;1.60;;;;;;;12.75;100.00;98889.05;1655624;85;21032;-68
2021/06/01 05:47:44;;;;;;;3.12;1.60;;;;;;;12.69;100.00;98884.75;1654697;86;21044;-68
2021/06/01 05:50:12;;;;;;;2.08;1.60;;;;;;;12.69;100.00;98895.78;1655601;86;20979;-68
2021/06/01 05:52:40;;;;;;;4.12;1.30;;;;;;;12.73;100.00;98890.41;1655612;86;21063;-68
2021/06/01 05:55:09;;;;;;;1.52;1.42;;;;;;;12.78;100.00;98895.64;1654555;86;21462;-68
2021/06/01 05:57:37;;;;;;;1.55;1.40;;;;;;;12.81;100.00;98891.16;1655542;86;21434;-68
2021/06/01 06:00:07;;;;;;;2.80;1.57;;;;;;;12.83;100.00;98886.71;1655599;86;21546;-67
2021/06/01 06:02:35;;;;;;;2.00;1.62;;;;;;;12.83;100.00;98883.19;1654715;85;21019;-68
2021/06/01 06:05:02;;;;;;;2.65;1.90;;;;;;;12.85;100.00;98887.55;1655619;86;21086;-68
2021/06/01 06:07:30;;;;;;;2.98;1.60;;;;;;;12.88;100.00;98885.30;1682412;83;20936;-68
2021/06/01 06:09:57;;;;;;;3.20;1.50;;;;;;;12.90;100.00;98887.46;1687178;83;20918;-68
2021/06/01 06:12:25;;;;;;;4.35;1.90;;;;;;;12.89;100.00;98889.69;1695388;84;20903;-68
2021/06/01 06:14:54;;;;;;;2.22;1.55;;;;;;;12.89;100.00;98887.91;1680379;85;20926;-69
2021/06/01 06:17:41;;;;;;;3.12;1.70;;;;;;;12.94;100.00;98886.50;1680302;85;21429;-68
2021/06/01 06:20:12;;;;;;;4.00;1.60;;;;;;;12.99;100.00;98887.73;1680930;84;21472;-69
2021/06/01 06:22:40;;;;;;;3.67;1.60;;;;;;;13.07;100.00;98886.67;1693008;84;20958;-69
2021/06/01 06:25:09;;;;;;;2.22;1.60;;;;;;;13.20;100.00;98890.84;1678093;85;21004;-69
2021/06/01 06:27:37;;;;;;;1.87;1.60;;;;;;;13.33;100.00;98883.99;1678256;85;20939;-69
2021/06/01 06:30:09;;;;;;;3.12;1.50;;;;;;;13.36;100.00;98898.50;1678079;85;21776;-69
2021/06/01 06:32:38;;;;;;;2.70;1.50;;;;;;;13.35;100.00;98894.97;1678231;85;20975;-69
2021/06/01 06:35:07;;;;;;;2.10;1.40;;;;;;;13.35;100.00;98891.45;1692910;84;20927;-69
2021/06/01 06:37:35;;;;;;;3.25;1.65;;;;;;;13.32;100.00;98895.05;1678000;85;21441;-69
2021/06/01 06:40:05;;;;;;;1.40;1.30;;;;;;;13.29;100.00;98884.52;1692907;84;20959;-68
2021/06/01 06:42:33;;;;;;;2.85;1.32;;;;;;;13.28;100.00;98890.71;1678002;85;21069;-69
2021/06/01 06:45:01;;;;;;;2.62;1.30;;;;;;;13.29;100.00;98892.91;1678096;85;20910;-69
2021/06/01 06:50:18;;;;;;;1.95;1.25;;;;;;;13.32;100.00;98886.22;1598714;89;21090;-69
2021/06/01 06:52:45;;;;;;;2.17;1.42;;;;;;;13.27;100.00;98895.59;1598669;89;21142;-69
2021/06/01 06:55:13;;;;;;;1.40;1.30;;;;;;;13.22;100.00;98889.03;1618136;87;21067;-69
2021/06/01 06:57:41;;;;;;;2.40;1.27;;;;;;;13.21;100.00;98887.29;1650506;87;20964;-69
2021/06/01 07:00:12;;;;;;;1.52;1.32;;;;;;;13.22;100.00;98900.08;1650594;87;21442;-68
2021/06/01 07:02:41;;;;;;;1.62;1.25;;;;;;;13.22;100.00;98890.81;1650496;87;20944;-68
2021/06/01 07:05:12;;;;;;;2.67;1.32;;;;;;;13.22;100.00;98888.16;1650564;87;21506;-68
2021/06/01 07:07:40;;;;;;;2.60;1.50;;;;;;;13.23;100.00;98897.40;1650595;87;21162;-68
2021/06/01 07:10:12;;;;;;;2.52;1.30;;;;;;;13.25;100.00;98899.17;1650503;87;20972;-68
2021/06/01 07:12:42;;;;;;;;;;;;;;;13.25;100.00;98904.02;1653048;87;20960;-68
2021/06/01 07:15:26;;;;;;;3.58;1.85;;;;;;;13.32;100.00;98899.47;1650510;87;20307;-69
2021/06/01 07:17:55;;;;;;;5.85;1.37;;;;;;;13.37;100.00;98906.86;1690137;84;21468;-69
2021/06/01 07:21:49;;;;;;;3.37;1.77;;;;;;;13.48;100.00;98903.53;1805939;79;22203;-68
2021/06/01 07:24:17;;;;;;;1.55;1.45;;;;;;;13.45;100.00;98911.09;1758246;80;21083;-69
2021/06/01 07:26:45;;;;;;;3.47;1.80;;;;;;;13.41;100.00;98896.62;1757556;81;21090;-69
2021/06/01 07:29:13;;;;;;;1.92;1.70;;;;;;;13.35;100.00;98903.37;1757473;81;21474;-69
2021/06/01 07:31:41;;;;;;;1.90;1.70;;;;;;;13.34;100.00;98905.16;1757649;81;20976;-69
2021/06/01 07:34:09;;;;;;;2.22;1.70;;;;;;;13.35;100.00;98908.67;1757632;81;20940;-69
2021/06/01 07:36:37;;;;;;;2.60;1.50;;;;;;;13.33;100.00;98900.76;1757639;81;20920;-69
2021/06/01 07:39:06;;;;;;;1.90;1.42;;;;;;;13.37;100.00;98902.89;1757617;81;21379;-69
2021/06/01 07:41:35;;;;;;;3.15;1.57;;;;;;;13.41;100.00;98902.80;1757532;81;20964;-69
2021/06/01 07:44:05;;;;;;;1.72;1.50;;;;;;;13.44;100.00;98902.73;1757569;81;20987;-69
2021/06/01 07:46:33;;;;;;;3.37;1.60;;;;;;;13.49;100.00;98902.63;1757680;81;20944;-68
2021/06/01 07:49:03;;;;;;;3.50;2.20;;;;;;;13.51;100.00;98896.84;1757532;81;21494;-69
2021/06/01 07:51:31;;;;;;;3.45;1.87;;;;;;;13.50;100.00;98897.74;1757546;81;21031;-69
2021/06/01 07:54:03;;;;;;;1.90;1.72;;;;;;;13.47;100.00;98903.11;1757482;81;21435;-70
2021/06/01 07:56:31;;;;;;;3.77;2.02;;;;;;;13.46;100.00;98906.22;1757849;81;20969;-70
2021/06/01 07:58:58;;;;;;;2.17;1.60;;;;;;;13.47;100.00;98900.46;1757710;81;21447;-68
2021/06/01 08:01:27;;;;;;;2.30;1.90;;;;;;;13.45;100.00;98893.88;1757725;81;20905;-68
2021/06/01 08:03:56;;;;;;;3.50;1.62;;;;;;;13.47;100.00;98899.13;1757742;81;21869;-71
2021/06/01 08:06:25;;;;;;;3.35;1.72;;;;;;;13.51;100.00;98892.86;1757617;81;20996;-70
2021/06/01 08:08:54;;;;;;;1.82;1.67;;;;;;;13.48;100.00;98887.63;1757790;81;21036;-70
2021/06/01 08:11:21;;;;;;;2.47;1.75;;;;;;;13.50;100.00;98893.77;1757482;81;21122;-70
2021/06/01 08:13:49;;;;;;;3.37;1.70;;;;;;;13.51;100.00;98894.19;1757773;81;20926;-71
2021/06/01 08:16:16;;;;;;;2.20;1.92;;;;;;;13.52;100.00;98889.31;1757919;81;21753;-70
2021/06/01 08:19:08;;;;;;;2.80;1.75;;;;;;;13.52;100.00;98899.45;1757706;81;20929;-70
2021/06/01 08:21:35;;;;;;;2.52;1.90;;;;;;;13.51;100.00;98895.52;1743056;81;21420;-71
2021/06/01 08:23:48;;;;;;;3.77;1.82;;;;;;;13.48;100.00;98893.80;1746281;82;20918;-68
2021/06/01 08:26:15;;;;;;;3.80;2.62;;;;;;;13.42;100.00;98893.94;1712065;83;20916;-69
2021/06/01 08:28:43;;;;;;;3.25;2.30;;;;;;;13.40;100.00;98904.15;1750311;81;21511;-70
2021/06/01 08:31:12;;;;;;;2.70;2.10;;;;;;;13.38;100.00;98895.36;1750106;82;21487;-70
2021/06/01 08:33:41;;;;;;;2.35;2.00;;;;;;;13.41;100.00;98896.62;1711476;83;21442;-69
2021/06/01 08:36:08;;;;;;;4.90;2.27;;;;;;;13.43;100.00;98902.76;1749864;81;20925;-70
2021/06/01 08:38:37;;;;;;;2.08;1.85;;;;;;;13.41;100.00;98903.24;1750252;82;21419;-71
2021/06/01 08:41:06;;;;;;;4.72;2.27;;;;;;;13.39;100.00;98905.05;1711633;83;20988;-71
2021/06/01 08:43:35;;;;;;;2.27;2.08;;;;;;;13.36;100.00;98907.77;1723204;82;21495;-71
2021/06/01 08:46:03;;;;;;;3.70;1.90;;;;;;;13.33;100.00;98906.51;1711453;83;21501;-70
2021/06/01 08:48:33;;;;;;;5.83;2.02;;;;;;;13.30;100.00;98903.92;1749722;82;21472;-69
2021/06/01 08:51:01;;;;;;;3.35;2.20;;;;;;;13.27;100.00;98913.27;1699830;82;20910;-69
2021/06/01 08:53:29;;;;;;;2.72;2.10;;;;;;;13.23;100.00;98910.64;1711748;83;21106;-69
2021/06/01 08:55:59;;;;;;;4.75;2.17;;;;;;;13.25;100.00;98910.64;1749687;81;21028;-69
2021/06/01 08:58:29;;;;;;;4.30;1.77;;;;;;;13.27;100.00;98911.94;1711454;83;21605;-69
2021/06/01 09:00:57;;;;;;;2.58;2.10;;;;;;;13.31;100.00;98919.79;1749693;81;21118;-69
2021/06/01 09:03:27;;;;;;;4.28;2.40;;;;;;;13.35;100.00;98903.37;1711311;83;20939;-69
2021/06/01 09:06:29;;;;;;;2.15;1.92;;;;;;;13.39;100.00;98908.58;1749660;82;22271;-69
2021/06/01 09:21:02;;;;;;;;;;;;;;;13.39;100.00;98903.28;1752510;82;21495;-70
2021/06/01 09:22:36;;;;;;;2.25;2.05;;;;;;;13.36;100.00;98908.64;1725535;82;20479;-70
2021/06/01 09:25:13;;;;;;;3.83;2.50;;;;;;;13.30;100.00;98904.80;1722424;82;20910;-68
2021/06/01 09:27:47;;;;;;;2.55;2.33;;;;;;;13.27;100.00;98907.97;1722511;82;21005;-70
2021/06/01 09:30:58;;;;;;;4.40;2.52;;;;;;;13.23;100.00;98902.70;1722468;82;21511;-69
2021/06/01 09:33:28;;;;;;;6.40;2.17;;;;;;;13.19;100.00;98913.39;1721413;82;21115;-69
2021/06/01 09:36:03;;;;;;;2.92;2.30;;;;;;;13.15;100.00;98908.57;1722421;82;20886;-69
2021/06/01 09:38:41;;;;;;;3.55;2.12;;;;;;;13.14;100.00;98907.28;1722224;82;21116;-69
2021/06/01 09:41:17;;;;;;;5.25;2.12;;;;;;;13.14;100.00;98910.80;1722083;82;20934;-69
2021/06/01 09:43:58;;;;;;;5.72;2.12;;;;;;;13.14;100.00;98908.60;1721973;82;21436;-69
2021/06/01 09:46:36;;;;;;;2.92;2.33;;;;;;;13.15;100.00;98901.08;1722158;82;21092;-68
2021/06/01 09:49:18;;;;;;;3.25;2.15;;;;;;;13.17;100.00;98901.95;1722170;82;21595;-68
2021/06/01 09:51:58;;;;;;;2.90;2.08;;;;;;;13.25;100.00;98909.77;1722252;82;21360;-68
2021/06/01 09:54:42;;;;;;;2.00;1.82;;;;;;;13.31;100.00;98905.22;1722241;82;20913;-69
2021/06/01 09:57:22;;;;;;;3.80;1.60;;;;;;;13.41;100.00;98895.30;1722260;82;21455;-70
2021/06/01 10:00:21;;;;;;;4.00;1.85;;;;;;;13.54;100.00;98900.75;1721931;82;21592;-65
2021/06/01 10:02:51;;;;;;;2.55;1.70;;;;;;;13.67;100.00;98900.02;1731070;82;21024;-67
2021/06/01 10:05:27;;;;;;;5.42;1.95;;;;;;;13.76;100.00;98901.17;1749638;81;20966;-69
2021/06/01 10:07:57;;;;;;;2.83;1.50;;;;;;;13.79;100.00;98897.12;1746708;80;21678;-72
2021/06/01 10:10:31;;;;;;;2.50;1.72;;;;;;;13.81;100.00;98891.33;1746743;80;20917;-70
2021/06/01 10:13:04;;;;;;;3.70;1.77;;;;;;;13.83;100.00;98893.03;1744741;80;21087;-71
2021/06/01 10:15:31;;;;;;;;;;;;;;;13.83;100.00;98889.05;1749794;82;21650;-71
2021/06/01 10:17:59;;;;;;;4.03;1.70;;;;;;;13.84;100.00;98889.48;1747231;82;20174;-70
2021/06/01 10:20:31;;;;;;;1.65;1.40;;;;;;;13.88;100.00;98890.73;1712686;82;21005;-71
2021/06/01 10:23:00;;;;;;;2.50;1.87;;;;;;;13.87;100.00;98881.91;1696137;82;21006;-69
2021/06/01 10:25:28;;;;;;;3.58;1.70;;;;;;;13.86;100.00;98887.66;1746005;80;21005;-70
2021/06/01 10:28:00;;;;;;;2.60;1.85;;;;;;;13.88;100.00;98878.34;1744773;81;20987;-71
2021/06/01 10:30:31;;;;;;;3.85;1.98;;;;;;;13.93;100.00;98884.41;1745430;81;21493;-71
2021/06/01 10:33:05;;;;;;;2.87;1.62;;;;;;;13.99;100.00;98886.91;1746259;81;20999;-71
2021/06/01 10:35:38;;;;;;;4.25;1.90;;;;;;;14.03;100.00;98879.75;1741503;81;21437;-69
2021/06/01 10:52:28;;;;;;;5.75;2.25;;;;;;;14.25;100.00;98883.64;1720831;82;22064;-77
2021/06/01 10:55:08;;;;;;;1.90;1.70;;;;;;;14.29;100.00;98877.35;1720697;82;20921;-78
2021/06/01 10:57:59;;;;;;;2.98;1.35;;;;;;;14.33;100.00;98883.00;1720952;82;21392;-78
2021/06/01 11:03:18;;;;;;;1.60;1.30;;;;;;;14.33;100.00;98883.45;1724274;82;21038;-71
2021/06/01 11:06:00;;;;;;;1.75;1.50;;;;;;;14.34;100.00;98880.76;1747042;81;21069;-73
2021/06/01 11:08:37;;;;;;;2.40;1.60;;;;;;;14.36;100.00;98880.72;1745020;81;20972;-71
2021/06/01 11:11:35;;;;;;;3.80;1.52;;;;;;;14.42;100.00;98884.54;1743097;81;21531;-72
2021/06/01 11:14:28;;;;;;;2.52;1.30;;;;;;;14.45;100.00;98880.06;1740366;80;20973;-72
2021/06/01 11:16:59;;;;;;;2.98;1.37;;;;;;;14.45;100.00;98877.41;1687291;81;21040;-71
2021/06/01 11:19:54;;;;;;;6.00;1.37;;;;;;;14.43;100.00;98876.58;1746178;82;21082;-73
2021/06/01 11:22:29;;;;;;;4.70;1.62;;;;;;;14.46;100.00;98875.63;1757364;80;21567;-70
2021/06/01 11:33:25;;;;;;;4.45;1.75;;;;;;;14.50;100.00;98870.65;1762545;80;21111;-71
2021/06/01 11:35:59;;;;;;;3.98;1.50;;;;;;;14.56;100.00;98873.14;1704474;83;21579;-75
2021/06/01 11:38:38;;;;;;;4.15;1.70;;;;;;;14.59;100.00;98878.37;1702828;83;21049;-70
2021/06/01 11:42:46;;;;;;;2.15;1.32;;;;;;;14.57;100.00;98868.70;1763201;80;21001;-71
2021/06/01 11:43:52;;;;;;;3.42;1.52;;;;;;;14.55;100.00;98866.55;1765273;80;20962;-70
2021/06/01 11:46:32;;;;;;;3.90;1.40;;;;;;;14.51;100.00;98862.23;1698007;83;22103;-77
2021/06/01 11:51:47;;;;;;;5.53;1.60;;;;;;;14.49;100.00;98874.22;1767886;80;21136;-79
2021/06/01 11:54:16;;;;;;;2.45;1.55;;;;;;;14.52;100.00;98863.97;1766780;80;21073;-79
2021/06/01 11:57:07;;;;;;;4.47;1.60;;;;;;;14.55;100.00;98872.72;1742900;81;21001;-77
2021/06/01 12:19:06;;;;;;;5.72;1.40;;;;;;;14.79;100.00;98860.14;1767517;80;21022;-77
2021/06/01 12:21:40;;;;;;;2.50;1.52;;;;;;;14.85;100.00;98856.45;1767237;80;20969;-78
2021/06/01 12:24:18;;;;;;;6.37;1.40;;;;;;;14.88;100.00;98864.78;1772784;80;20899;-70
2021/06/01 12:27:15;;;;;;;2.55;1.30;;;;;;;14.91;100.00;98860.25;1779213;80;21049;-69
2021/06/01 12:32:26;;;;;;;2.60;1.37;;;;;;;15.09;100.00;98855.74;1780061;80;21814;-70
2021/06/01 13:20:50;;;;;;;3.05;1.40;;;;;;;15.87;100.00;98829.50;1750440;81;20871;-73
2021/06/01 13:40:35;;;;;;;3.50;1.27;;;;;;;15.65;100.00;98820.02;1744394;82;21575;-74
2021/06/01 13:46:00;;;;;;;4.60;1.20;;;;;;;15.59;100.00;98827.28;1744061;82;20946;-73
2021/06/01 13:56:22;;;;;;;4.83;1.60;;;;;;;15.54;100.00;98842.02;1744333;82;21420;-74
2021/06/01 14:09:58;;;;;;;5.25;1.37;;;;;;;15.66;100.00;98840.38;1723053;82;20994;-73
2021/06/01 14:37:26;;;;;;;3.35;1.30;;;;;;;15.66;100.00;98835.05;1774827;80;20894;-72
2021/06/01 15:10:14;;;;;;;3.15;1.27;;;;;;;15.35;100.00;98831.54;1609609;89;21211;-72
2021/06/01 15:24:25;;;;;;;1.92;1.10;;;;;;;15.17;100.00;98834.75;1609834;87;21005;-72
2021/06/01 15:29:10;;;;;;;3.08;1.60;;;;;;;15.18;100.00;98839.16;1609448;87;21595;-73
2021/06/01 15:31:49;;;;;;;2.92;1.32;;;;;;;15.14;100.00;98834.84;1610173;87;20961;-73
2021/06/01 15:53:40;;;;;;;9.78;2.35;;;;;;;14.98;100.00;98845.02;1608717;89;21135;-72